createdAt,value
2022-08-09T00:01:54.699Z,1.80
2022-08-09T00:04:33.843Z,2.40
2022-08-09T00:07:03.172Z,2.20
2022-08-09T00:09:35.417Z,2.10
2022-08-09T00:12:07.103Z,2.23
2022-08-09T00:14:37.844Z,2.40
2022-08-09T00:17:06.318Z,2.70
2022-08-09T00:19:34.175Z,2.10
2022-08-09T00:22:04.195Z,1.97
2022-08-09T00:24:32.810Z,2.30
2022-08-09T00:27:00.958Z,2.37
2022-08-09T00:30:10.220Z,2.43
2022-08-09T00:32:26.656Z,2.53
2022-08-09T00:34:55.557Z,2.57
2022-08-09T00:37:23.998Z,2.50
2022-08-09T00:40:12.668Z,2.27
2022-08-09T00:44:10.158Z,2.47
2022-08-09T00:45:28.841Z,2.47
2022-08-09T00:47:56.438Z,2.27
2022-08-09T00:50:24.258Z,2.50
2022-08-09T00:52:52.529Z,2.70
2022-08-09T00:56:02.941Z,1.90
2022-08-09T00:58:09.373Z,2.60
2022-08-09T01:00:44.717Z,2.40
2022-08-09T01:03:17.981Z,2.63
2022-08-09T01:05:54.566Z,2.70
2022-08-09T01:08:30.917Z,2.67
2022-08-09T01:11:11.278Z,2.53
2022-08-09T01:13:59.140Z,2.20
2022-08-09T01:16:33.268Z,2.63
2022-08-09T01:19:17.227Z,2.50
2022-08-09T01:22:10.318Z,2.57
2022-08-09T01:24:52.097Z,2.40
2022-08-09T01:27:24.688Z,2.83
2022-08-09T01:29:58.503Z,2.73
2022-08-09T01:32:34.124Z,2.50
2022-08-09T01:35:06.938Z,2.60
2022-08-09T01:38:07.987Z,2.20
2022-08-09T01:40:38.449Z,2.60
2022-08-09T01:43:09.760Z,2.47
2022-08-09T01:45:46.188Z,2.63
2022-08-09T01:48:17.268Z,2.87
2022-08-09T01:50:48.119Z,2.50
2022-08-09T01:53:19.395Z,2.73
2022-08-09T01:55:48.885Z,2.60
2022-08-09T01:58:18.555Z,2.50
2022-08-09T02:00:54.304Z,2.63
2022-08-09T02:03:23.132Z,2.33
2022-08-09T02:06:03.782Z,2.47
2022-08-09T02:08:57.160Z,2.37
2022-08-09T02:11:44.042Z,2.93
2022-08-09T02:14:25.454Z,2.60
2022-08-09T02:17:14.562Z,2.53
2022-08-09T02:19:45.850Z,2.50
2022-08-09T02:22:38.023Z,2.00
2022-08-09T02:25:15.203Z,2.47
2022-08-09T02:28:00.568Z,2.80
2022-08-09T02:30:38.644Z,2.80
2022-08-09T02:33:14.194Z,2.63
2022-08-09T02:36:02.765Z,2.47
2022-08-09T02:38:35.440Z,2.10
2022-08-09T02:41:09.135Z,2.53
2022-08-09T02:43:42.455Z,2.83
2022-08-09T02:46:27.594Z,2.80
2022-08-09T02:48:59.205Z,2.33
2022-08-09T02:51:36.964Z,3.20
2022-08-09T02:54:12.314Z,2.77
2022-08-09T02:56:43.728Z,2.40
2022-08-09T02:59:26.400Z,2.57
2022-08-09T03:02:07.082Z,2.90
2022-08-09T03:04:40.905Z,2.87
2022-08-09T03:07:14.346Z,2.60
2022-08-09T03:09:43.371Z,2.60
2022-08-09T03:12:22.932Z,2.30
2022-08-09T03:14:51.658Z,2.90
2022-08-09T03:17:27.239Z,2.70
2022-08-09T03:20:03.395Z,2.53
2022-08-09T03:22:41.729Z,3.00
2022-08-09T03:25:26.748Z,2.60
2022-08-09T03:28:01.757Z,2.87
2022-08-09T03:30:33.947Z,2.53
2022-08-09T03:33:17.428Z,3.10
2022-08-09T03:36:12.903Z,2.67
2022-08-09T03:38:42.042Z,2.73
2022-08-09T03:41:15.029Z,2.77
2022-08-09T03:44:02.882Z,3.13
2022-08-09T03:46:31.994Z,3.30
2022-08-09T03:49:03.785Z,3.60
2022-08-09T03:51:56.442Z,3.27
2022-08-09T03:54:29.777Z,2.53
2022-08-09T03:57:00.818Z,2.67
2022-08-09T03:59:53.692Z,2.77
2022-08-09T04:02:26.953Z,2.80
2022-08-09T04:04:58.563Z,3.27
2022-08-09T04:07:33.666Z,3.10
2022-08-09T04:10:15.232Z,3.10
2022-08-09T04:12:49.950Z,3.57
2022-08-09T04:15:39.180Z,2.90
2022-08-09T04:18:08.513Z,3.37
2022-08-09T04:20:37.439Z,2.93
2022-08-09T04:23:09.994Z,2.93
2022-08-09T04:25:44.390Z,3.50
2022-08-09T04:28:17.447Z,2.80
2022-08-09T04:31:08.191Z,3.20
2022-08-09T04:33:53.113Z,2.87
2022-08-09T04:36:26.899Z,3.53
2022-08-09T04:38:55.681Z,4.00
2022-08-09T04:41:32.542Z,3.60
2022-08-09T04:44:07.222Z,3.50
2022-08-09T04:46:58.136Z,3.53
2022-08-09T04:49:53.482Z,2.77
2022-08-09T04:52:26.897Z,2.90
2022-08-09T04:54:55.955Z,2.87
2022-08-09T04:57:25.246Z,3.00
2022-08-09T04:59:54.915Z,3.37
2022-08-09T05:02:22.769Z,4.37
2022-08-09T05:04:55.154Z,3.33
2022-08-09T05:07:25.157Z,3.07
2022-08-09T05:09:57.646Z,3.50
2022-08-09T05:12:26.606Z,3.17
2022-08-09T05:14:54.098Z,3.20
2022-08-09T05:18:50.601Z,3.30
2022-08-09T05:20:11.547Z,3.50
2022-08-09T05:23:54.299Z,2.80
2022-08-09T05:25:32.444Z,3.23
2022-08-09T05:28:00.373Z,3.00
2022-08-09T05:30:29.913Z,3.60
2022-08-09T05:32:59.174Z,3.27
2022-08-09T05:35:26.934Z,3.70
2022-08-09T05:37:57.156Z,3.37
2022-08-09T05:40:26.795Z,2.53
2022-08-09T05:42:54.251Z,3.13
2022-08-09T05:45:21.860Z,3.80
2022-08-09T05:47:59.233Z,3.67
2022-08-09T05:50:44.008Z,3.63
2022-08-09T05:53:21.813Z,3.40
2022-08-09T05:56:01.527Z,3.07
2022-08-09T05:58:29.230Z,3.30
2022-08-09T06:00:57.028Z,4.50
2022-08-09T06:03:25.809Z,4.27
2022-08-09T06:06:11.317Z,2.90
2022-08-09T06:08:40.576Z,3.60
2022-08-09T06:11:17.658Z,3.60
2022-08-09T06:13:47.555Z,4.27
2022-08-09T06:16:16.379Z,3.77
2022-08-09T06:18:44.709Z,3.67
2022-08-09T06:21:12.257Z,3.70
2022-08-09T06:23:55.210Z,5.13
2022-08-09T06:26:28.674Z,4.27
2022-08-09T06:29:00.591Z,4.10
2022-08-09T06:31:39.814Z,3.10
2022-08-09T06:34:22.412Z,3.60
2022-08-09T06:36:51.071Z,3.30
2022-08-09T06:39:48.181Z,2.97
2022-08-09T06:42:19.795Z,3.03
2022-08-09T06:44:47.608Z,3.10
2022-08-09T06:47:22.223Z,3.53
2022-08-09T06:50:14.026Z,3.77
2022-08-09T06:52:39.937Z,2.97
2022-08-09T06:55:10.186Z,3.03
2022-08-09T06:58:01.448Z,3.07
2022-08-09T07:00:50.385Z,2.80
2022-08-09T07:03:16.845Z,2.47
2022-08-09T07:06:02.758Z,2.70
2022-08-09T07:08:31.909Z,2.40
2022-08-09T07:11:03.378Z,2.50
2022-08-09T07:13:31.443Z,2.27
2022-08-09T07:16:38.932Z,2.50
2022-08-09T07:19:00.579Z,2.23
2022-08-09T07:21:30.954Z,2.47
2022-08-09T07:23:58.677Z,2.20
2022-08-09T07:26:27.614Z,2.90
2022-08-09T07:29:09.162Z,2.03
2022-08-09T07:31:45.326Z,2.50
2022-08-09T07:34:21.062Z,2.07
2022-08-09T07:36:49.156Z,1.60
2022-08-09T07:39:20.091Z,3.63
2022-08-09T07:41:55.789Z,2.03
2022-08-09T07:44:51.187Z,2.00
2022-08-09T07:47:11.488Z,2.00
2022-08-09T07:50:04.773Z,2.10
2022-08-09T07:52:30.963Z,1.87
2022-08-09T07:54:58.792Z,2.13
2022-08-09T07:57:35.683Z,2.00
2022-08-09T08:00:04.892Z,2.03
2022-08-09T08:02:43.378Z,1.90
2022-08-09T08:05:17.717Z,2.47
2022-08-09T08:08:44.577Z,1.70
2022-08-09T08:10:34.278Z,1.90
2022-08-09T08:13:03.842Z,1.80
2022-08-09T08:15:35.480Z,1.97
2022-08-09T08:18:05.543Z,1.60
2022-08-09T08:20:33.614Z,1.90
2022-08-09T08:23:06.370Z,1.60
2022-08-09T08:25:46.640Z,2.30
2022-08-09T08:28:32.146Z,2.23
2022-08-09T08:31:06.116Z,2.00
2022-08-09T08:33:49.622Z,1.70
2022-08-09T08:36:29.291Z,1.90
2022-08-09T08:38:58.317Z,2.30
2022-08-09T08:41:42.200Z,2.07
2022-08-09T08:44:23.049Z,1.90
2022-08-09T08:47:03.265Z,1.83
2022-08-09T08:49:46.906Z,1.70
2022-08-09T08:52:52.741Z,1.90
2022-08-09T08:55:08.951Z,1.97
2022-08-09T08:57:37.421Z,2.13
2022-08-09T09:00:20.326Z,1.90
2022-08-09T09:02:52.734Z,2.00
2022-08-09T09:05:57.832Z,2.30
2022-08-09T09:08:29.895Z,2.10
2022-08-09T09:11:02.616Z,2.20
2022-08-09T09:13:41.684Z,2.40
2022-08-09T09:16:30.887Z,1.87
2022-08-09T09:19:22.689Z,2.80
2022-08-09T09:22:05.068Z,2.00
2022-08-09T09:24:35.353Z,2.23
2022-08-09T09:27:07.663Z,2.10
2022-08-09T09:30:09.372Z,2.47
2022-08-09T09:32:35.038Z,1.73
2022-08-09T09:35:09.811Z,1.90
2022-08-09T09:37:40.479Z,2.10
2022-08-09T09:40:09.808Z,2.00
2022-08-09T09:42:39.152Z,2.27
2022-08-09T09:45:14.280Z,2.10
2022-08-09T09:47:58.582Z,2.30
2022-08-09T09:50:42.148Z,1.83
2022-08-09T09:53:20.145Z,1.97
2022-08-09T09:56:03.974Z,2.23
2022-08-09T09:58:45.832Z,2.00
2022-08-09T10:01:36.829Z,2.20
2022-08-09T10:04:16.236Z,2.70
2022-08-09T10:06:52.028Z,2.07
2022-08-09T10:09:24.109Z,2.13
2022-08-09T10:12:12.532Z,2.03
2022-08-09T10:14:48.778Z,3.00
2022-08-09T10:17:40.687Z,2.30
2022-08-09T10:20:32.111Z,2.40
2022-08-09T10:23:16.907Z,2.40
2022-08-09T10:26:07.955Z,2.30
2022-08-09T10:28:35.418Z,2.03
2022-08-09T10:34:10.278Z,2.13
2022-08-09T10:36:42.085Z,2.10
2022-08-09T10:39:15.961Z,2.37
2022-08-09T10:41:47.768Z,2.97
2022-08-09T10:44:19.299Z,2.20
2022-08-09T10:48:13.400Z,2.40
2022-08-09T10:50:16.901Z,2.23
2022-08-09T10:53:10.571Z,2.87
2022-08-09T10:55:58.699Z,3.23
2022-08-09T10:58:34.824Z,2.67
2022-08-09T11:03:05.646Z,2.73
2022-08-09T11:04:19.845Z,2.43
2022-08-09T11:07:57.990Z,2.17
2022-08-09T11:10:17.053Z,2.20
2022-08-09T11:13:49.243Z,2.13
2022-08-09T11:16:38.016Z,2.60
2022-08-09T11:19:10.227Z,2.20
2022-08-09T11:22:16.824Z,2.20
2022-08-09T11:25:08.217Z,1.80
2022-08-09T11:28:05.583Z,1.97
2022-08-09T11:30:36.113Z,2.10
2022-08-09T11:33:05.792Z,2.20
2022-08-09T11:35:49.105Z,2.67
2022-08-09T11:38:22.121Z,2.40
2022-08-09T11:40:54.682Z,2.10
2022-08-09T11:43:41.142Z,2.13
2022-08-09T11:46:10.754Z,1.93
2022-08-09T11:48:49.103Z,1.50
2022-08-09T11:52:57.091Z,1.93
2022-08-09T11:54:29.696Z,2.07
2022-08-09T11:57:47.841Z,1.90
2022-08-09T12:00:29.244Z,2.17
2022-08-09T12:03:31.757Z,2.40
2022-08-09T12:05:50.861Z,2.00
2022-08-09T12:08:21.442Z,2.00
2022-08-09T12:10:52.941Z,2.00
2022-08-09T12:14:09.924Z,2.30
2022-08-09T12:16:30.694Z,2.20
2022-08-09T12:19:09.283Z,1.87
2022-08-09T12:21:48.516Z,2.17
2022-08-09T12:24:21.715Z,2.00
2022-08-09T12:29:13.980Z,2.20
2022-08-09T12:29:52.244Z,2.00
2022-08-09T12:32:27.510Z,1.70
2022-08-09T12:35:02.934Z,2.17
2022-08-09T12:37:33.380Z,2.20
2022-08-09T12:40:12.887Z,2.10
2022-08-09T12:42:44.943Z,1.67
2022-08-09T12:45:34.931Z,1.80
2022-08-09T12:48:00.681Z,1.60
2022-08-09T12:50:29.709Z,1.57
2022-08-09T12:53:08.702Z,1.47
2022-08-09T12:56:13.720Z,1.73
2022-08-09T12:58:27.232Z,2.20
2022-08-09T13:00:56.253Z,1.77
2022-08-09T13:03:59.070Z,1.50
2022-08-09T13:06:34.262Z,1.70
2022-08-09T13:09:07.829Z,1.50
2022-08-09T13:11:39.474Z,1.77
2022-08-09T13:14:42.609Z,1.57
2022-08-09T13:17:01.960Z,1.50
2022-08-09T13:20:07.411Z,1.40
2022-08-09T13:22:37.549Z,1.50
2022-08-09T13:25:13.733Z,1.33
2022-08-09T13:27:54.649Z,1.60
2022-08-09T13:30:51.141Z,1.63
2022-08-09T13:33:16.916Z,1.57
2022-08-09T13:36:37.613Z,1.20
2022-08-09T13:38:56.671Z,1.43
2022-08-09T13:41:57.338Z,1.90
2022-08-09T13:44:16.813Z,1.60
2022-08-09T13:47:15.191Z,1.47
2022-08-09T13:49:39.842Z,1.67
2022-08-09T13:52:22.047Z,1.20
2022-08-09T13:54:59.238Z,1.20
2022-08-09T13:58:08.069Z,1.60
2022-08-09T14:00:50.500Z,1.07
2022-08-09T14:04:01.412Z,1.50
2022-08-09T14:06:14.674Z,1.50
2022-08-09T14:08:47.355Z,1.70
2022-08-09T14:11:16.709Z,1.20
2022-08-09T14:14:22.255Z,1.60
2022-08-09T14:16:32.081Z,1.30
2022-08-09T14:19:02.144Z,1.00
2022-08-09T14:21:32.081Z,1.40
2022-08-09T14:24:01.541Z,1.20
2022-08-09T14:26:39.005Z,1.43
2022-08-09T14:33:11.136Z,1.43
2022-08-09T14:35:52.605Z,1.27
2022-08-09T14:38:21.227Z,1.30
2022-08-09T14:41:02.068Z,1.17
2022-08-09T14:43:47.428Z,1.17
2022-08-09T14:46:55.437Z,1.63
2022-08-09T14:49:04.087Z,1.40
2022-08-09T14:51:31.630Z,1.37
2022-08-09T14:54:10.301Z,1.20
2022-08-09T14:56:57.418Z,1.33
2022-08-09T14:59:28.406Z,1.40
2022-08-09T15:01:56.509Z,1.33
2022-08-09T15:04:24.680Z,1.00
2022-08-09T15:06:52.258Z,1.20
2022-08-09T15:10:03.263Z,1.23
2022-08-09T15:12:11.660Z,1.87
2022-08-09T15:14:44.610Z,1.20
2022-08-09T15:17:12.116Z,1.03
2022-08-09T15:19:59.203Z,1.20
2022-08-09T15:22:28.825Z,1.10
2022-08-09T15:24:59.435Z,1.20
2022-08-09T15:27:48.094Z,1.10
2022-08-09T15:30:55.336Z,1.17
2022-08-09T15:33:09.509Z,1.30
2022-08-09T15:36:01.669Z,1.10
2022-08-09T15:38:30.732Z,1.20
2022-08-09T15:40:58.224Z,1.17
2022-08-09T15:43:36.892Z,1.20
2022-08-09T15:46:28.168Z,1.60
2022-08-09T15:49:21.225Z,1.00
2022-08-09T15:52:02.675Z,1.23
2022-08-09T15:54:41.372Z,1.80
2022-08-09T15:57:14.137Z,1.30
2022-08-09T15:59:51.621Z,1.13
2022-08-09T16:02:27.128Z,1.40
2022-08-09T16:04:55.113Z,1.30
2022-08-09T16:07:22.610Z,1.40
2022-08-09T16:09:58.029Z,1.40
2022-08-09T16:12:32.487Z,1.30
2022-08-09T16:15:01.206Z,1.10
2022-08-09T16:17:30.114Z,1.20
2022-08-09T16:20:04.465Z,1.27
2022-08-09T16:22:32.934Z,1.23
2022-08-09T16:25:01.973Z,1.30
2022-08-09T16:27:29.892Z,1.33
2022-08-09T16:30:01.102Z,1.47
2022-08-09T16:32:49.726Z,1.17
2022-08-09T16:35:56.035Z,1.20
2022-08-09T16:38:10.862Z,1.23
2022-08-09T16:40:40.779Z,1.40
2022-08-09T16:43:09.484Z,1.20
2022-08-09T16:45:44.204Z,1.47
2022-08-09T16:48:50.855Z,1.10
2022-08-09T16:51:07.941Z,1.13
2022-08-09T16:53:36.570Z,1.10
2022-08-09T16:56:10.181Z,1.30
2022-08-09T16:58:39.836Z,1.80
2022-08-09T17:01:10.504Z,1.40
2022-08-09T17:03:39.395Z,1.37
2022-08-09T17:06:31.318Z,1.27
2022-08-09T17:09:11.711Z,1.30
2022-08-09T17:11:44.666Z,1.50
2022-08-09T17:14:27.161Z,1.27
2022-08-09T17:17:00.093Z,1.30
2022-08-09T17:19:46.410Z,1.00
2022-08-09T17:22:15.247Z,1.40
2022-08-09T17:24:47.784Z,1.20
2022-08-09T17:27:22.697Z,1.23
2022-08-09T17:29:51.239Z,1.00
2022-08-09T17:32:26.508Z,1.20
2022-08-09T17:35:12.218Z,1.23
2022-08-09T17:38:02.151Z,1.00
2022-08-09T17:40:32.705Z,1.10
2022-08-09T17:43:10.814Z,1.20
2022-08-09T17:46:02.664Z,1.30
2022-08-09T17:48:35.040Z,1.17
2022-08-09T17:51:17.597Z,1.10
2022-08-09T17:53:52.831Z,1.37
2022-08-09T17:56:27.365Z,1.60
2022-08-09T17:58:56.255Z,1.27
2022-08-09T18:01:23.983Z,2.10
2022-08-09T18:03:52.494Z,1.93
2022-08-09T18:06:31.840Z,1.50
2022-08-09T18:09:03.248Z,2.20
2022-08-09T18:12:05.967Z,1.37
2022-08-09T18:14:20.161Z,1.30
2022-08-09T18:16:49.161Z,1.60
2022-08-09T18:20:54.369Z,1.40
2022-08-09T18:22:12.955Z,1.30
2022-08-09T18:24:41.452Z,1.30
2022-08-09T18:27:10.349Z,1.50
2022-08-09T18:30:40.040Z,1.30
2022-08-09T18:32:29.046Z,1.20
2022-08-09T18:34:56.572Z,1.67
2022-08-09T18:37:48.542Z,1.50
2022-08-09T18:40:13.820Z,1.50
2022-08-09T18:42:46.709Z,1.13
2022-08-09T18:45:21.487Z,1.70
2022-08-09T18:48:02.080Z,1.43
2022-08-09T18:50:33.563Z,1.03
2022-08-09T18:53:02.823Z,1.80
2022-08-09T18:55:56.599Z,1.37
2022-08-09T18:58:32.183Z,1.40
2022-08-09T19:01:00.940Z,1.47
2022-08-09T19:03:28.915Z,1.30
2022-08-09T19:06:03.212Z,1.47
2022-08-09T19:08:32.480Z,2.60
2022-08-09T19:11:00.217Z,1.50
2022-08-09T19:13:38.679Z,1.60
2022-08-09T19:16:18.325Z,1.70
2022-08-09T19:18:48.927Z,1.40
2022-08-09T19:21:21.575Z,1.40
2022-08-09T19:24:37.624Z,1.50
2022-08-09T19:26:38.378Z,1.40
2022-08-09T19:29:15.676Z,1.30
2022-08-09T19:31:49.497Z,1.40
2022-08-09T19:34:22.597Z,1.60
2022-08-09T19:36:52.763Z,1.40
2022-08-09T19:39:43.095Z,1.83
2022-08-09T19:42:15.010Z,1.13
2022-08-09T19:44:50.503Z,1.43
2022-08-09T19:47:22.837Z,1.53
2022-08-09T19:50:07.564Z,1.50
2022-08-09T19:52:51.414Z,1.40
2022-08-09T19:55:30.442Z,1.40
2022-08-09T19:57:58.661Z,1.40
2022-08-09T20:00:26.188Z,1.93
2022-08-09T20:04:09.595Z,1.30
2022-08-09T20:05:46.480Z,1.73
2022-08-09T20:08:16.006Z,2.07
2022-08-09T20:10:55.907Z,1.63
2022-08-09T20:13:25.672Z,1.50
2022-08-09T20:16:33.584Z,1.60
2022-08-09T20:19:04.085Z,1.30
2022-08-09T20:21:55.140Z,1.67
2022-08-09T20:24:31.930Z,1.60
2022-08-09T20:27:08.079Z,1.60
2022-08-09T20:29:38.004Z,1.70
2022-08-09T20:32:30.671Z,1.77
2022-08-09T20:35:01.973Z,1.83
2022-08-09T20:38:19.386Z,1.67
2022-08-09T20:40:19.037Z,1.67
2022-08-09T20:43:18.383Z,1.63
2022-08-09T20:45:59.345Z,1.80
2022-08-09T20:48:40.405Z,1.90
2022-08-09T20:51:19.621Z,1.50
2022-08-09T20:53:50.716Z,1.80
2022-08-09T20:56:21.898Z,1.87
2022-08-09T20:58:58.792Z,1.80
2022-08-09T21:01:34.011Z,1.73
2022-08-09T21:05:50.979Z,1.90
2022-08-09T21:07:12.429Z,1.87
2022-08-09T21:09:55.779Z,1.60
2022-08-09T21:15:17.415Z,1.60
2022-08-09T21:18:23.694Z,1.50
2022-08-09T21:20:40.328Z,1.67
2022-08-09T21:23:13.096Z,1.70
2022-08-09T21:25:59.365Z,1.30
2022-08-09T21:28:34.744Z,1.40
2022-08-09T21:31:17.195Z,1.50
2022-08-09T21:33:50.404Z,2.20
2022-08-09T21:36:20.309Z,1.23
2022-08-09T21:38:50.868Z,1.50
2022-08-09T21:41:25.580Z,1.27
2022-08-09T21:44:11.639Z,1.37
2022-08-09T21:46:44.247Z,1.70
2022-08-09T21:49:11.864Z,1.80
2022-08-09T21:51:43.824Z,1.67
2022-08-09T21:54:12.056Z,1.50
2022-08-09T21:56:44.870Z,1.83
2022-08-09T21:59:23.458Z,1.50
2022-08-09T22:02:00.239Z,1.60
2022-08-09T22:04:55.772Z,2.00
2022-08-09T22:07:35.130Z,1.70
2022-08-09T22:10:08.367Z,1.63
2022-08-09T22:12:37.343Z,1.83
2022-08-09T22:15:08.859Z,2.60
2022-08-09T22:17:46.172Z,1.90
2022-08-09T22:20:16.857Z,1.60
2022-08-09T22:22:49.798Z,1.70
2022-08-09T22:26:05.977Z,2.03
2022-08-09T22:28:07.329Z,1.80
2022-08-09T22:30:37.792Z,1.70
2022-08-09T22:33:10.721Z,1.77
2022-08-09T22:36:01.428Z,2.07
2022-08-09T22:38:26.181Z,2.23
2022-08-09T22:40:57.414Z,1.83
2022-08-09T22:44:00.498Z,2.20
2022-08-09T22:48:12.251Z,2.07
2022-08-09T22:49:10.319Z,2.33
2022-08-09T22:51:43.311Z,2.00
2022-08-09T22:54:21.093Z,2.20
2022-08-09T22:56:51.002Z,1.83
2022-08-09T22:59:55.194Z,1.67
2022-08-09T23:02:14.913Z,1.63
2022-08-09T23:04:54.189Z,1.80
2022-08-09T23:08:22.565Z,1.70
2022-08-09T23:10:28.619Z,2.10
2022-08-09T23:12:56.179Z,1.90
2022-08-09T23:15:23.773Z,1.97
2022-08-09T23:17:51.264Z,1.93
2022-08-09T23:20:20.147Z,1.93
2022-08-09T23:22:47.753Z,2.10
2022-08-09T23:25:15.454Z,1.80
2022-08-09T23:28:00.576Z,1.70
2022-08-09T23:30:31.572Z,1.97
2022-08-09T23:32:59.068Z,2.50
2022-08-09T23:35:28.074Z,1.97
2022-08-09T23:37:55.647Z,1.90
2022-08-09T23:40:23.287Z,2.20
2022-08-09T23:42:50.914Z,2.20
2022-08-09T23:45:36.390Z,2.07
2022-08-09T23:48:08.969Z,2.30
2022-08-09T23:50:38.077Z,1.90
2022-08-09T23:53:05.713Z,2.20
2022-08-09T23:55:36.079Z,2.50
2022-08-09T23:58:10.694Z,2.20
